createdAt,value
2018-03-07T00:00:48.481Z,39.03
2018-03-07T00:03:26.244Z,36.67
2018-03-07T00:06:01.238Z,50.47
2018-03-07T00:08:37.281Z,36.70
2018-03-07T00:11:07.989Z,38.65
2018-03-07T00:13:45.813Z,38.65
2018-03-07T00:16:23.061Z,33.83
2018-03-07T00:18:58.826Z,36.28
2018-03-07T00:21:35.426Z,39.17
2018-03-07T00:24:11.637Z,35.67
2018-03-07T00:26:48.506Z,37.33
2018-03-07T00:29:25.141Z,32.67
2018-03-07T00:32:01.938Z,36.33
2018-03-07T00:34:43.337Z,38.83
2018-03-07T00:37:21.677Z,34.25
2018-03-07T00:40:00.773Z,32.13
2018-03-07T00:42:37.921Z,35.28
2018-03-07T00:45:13.413Z,36.67
2018-03-07T00:47:49.811Z,34.15
2018-03-07T00:50:25.109Z,31.80
2018-03-07T00:53:01.742Z,35.75
2018-03-07T00:55:44.595Z,37.25
2018-03-07T00:58:19.823Z,39.70
2018-03-07T01:00:55.642Z,33.83
2018-03-07T01:03:34.530Z,28.48
2018-03-07T01:06:11.245Z,29.02
2018-03-07T01:08:48.088Z,30.10
2018-03-07T01:11:25.218Z,29.90
2018-03-07T01:14:01.660Z,26.15
2018-03-07T01:16:37.708Z,28.60
2018-03-07T01:19:14.348Z,22.60
2018-03-07T01:21:50.068Z,26.62
2018-03-07T01:24:26.026Z,27.52
2018-03-07T01:27:01.439Z,28.25
2018-03-07T01:29:40.443Z,33.55
2018-03-07T01:32:19.524Z,25.90
2018-03-07T01:34:56.187Z,27.52
2018-03-07T01:37:33.005Z,28.55
2018-03-07T01:40:09.545Z,23.58
2018-03-07T01:42:47.053Z,27.37
2018-03-07T01:45:23.740Z,29.50
2018-03-07T01:48:02.153Z,23.80
2018-03-07T01:50:40.942Z,26.85
2018-03-07T01:53:18.117Z,24.33
2018-03-07T01:55:53.563Z,27.27
2018-03-07T01:58:35.601Z,29.70
2018-03-07T02:01:12.401Z,22.62
2018-03-07T02:03:49.819Z,21.23
2018-03-07T02:06:32.487Z,25.67
2018-03-07T02:09:09.336Z,22.95
2018-03-07T02:11:44.675Z,23.00
2018-03-07T02:14:34.601Z,27.62
2018-03-07T02:17:11.172Z,29.92
2018-03-07T02:19:48.627Z,25.48
2018-03-07T02:22:24.574Z,26.90
2018-03-07T02:25:00.766Z,25.75
2018-03-07T02:27:38.482Z,22.17
2018-03-07T02:30:13.919Z,23.33
2018-03-07T02:32:50.838Z,26.87
2018-03-07T02:35:26.551Z,26.50
2018-03-07T02:38:04.702Z,26.02
2018-03-07T02:40:42.215Z,26.85
2018-03-07T02:43:18.755Z,24.12
2018-03-07T02:45:54.458Z,24.98
2018-03-07T02:48:33.670Z,26.70
2018-03-07T02:51:09.113Z,27.80
2018-03-07T02:53:46.322Z,25.75
2018-03-07T02:56:25.637Z,26.90
2018-03-07T02:59:01.336Z,23.05
2018-03-07T03:01:37.871Z,26.08
2018-03-07T03:04:13.025Z,23.73
2018-03-07T03:06:50.690Z,27.45
2018-03-07T03:09:26.067Z,28.00
2018-03-07T03:12:01.510Z,30.00
2018-03-07T03:14:38.126Z,31.20
2018-03-07T03:17:15.116Z,29.55
2018-03-07T03:19:56.309Z,25.92
2018-03-07T03:22:31.365Z,29.00
2018-03-07T03:25:07.075Z,25.52
2018-03-07T03:27:43.362Z,24.02
2018-03-07T03:30:20.025Z,26.27
2018-03-07T03:32:56.138Z,27.67
2018-03-07T03:35:32.185Z,35.10
2018-03-07T03:38:11.803Z,23.17
2018-03-07T03:40:48.039Z,31.33
2018-03-07T03:43:23.785Z,26.83
2018-03-07T03:46:00.931Z,28.42
2018-03-07T03:48:39.288Z,26.85
2018-03-07T03:51:17.491Z,27.58
2018-03-07T03:53:55.638Z,31.60
2018-03-07T03:56:37.363Z,23.02
2018-03-07T03:59:13.175Z,33.58
2018-03-07T04:01:48.622Z,30.33
2018-03-07T04:04:25.347Z,28.08
2018-03-07T04:07:02.090Z,28.48
2018-03-07T04:09:40.419Z,30.30
2018-03-07T04:12:16.848Z,28.60
2018-03-07T04:14:52.487Z,30.52
2018-03-07T04:17:29.065Z,27.83
2018-03-07T04:20:07.467Z,32.00
2018-03-07T04:22:42.770Z,29.63
2018-03-07T04:25:19.476Z,31.95
2018-03-07T04:27:55.389Z,26.17
2018-03-07T04:30:30.769Z,35.63
2018-03-07T04:33:06.382Z,30.80
2018-03-07T04:35:40.630Z,32.45
2018-03-07T04:38:17.128Z,32.00
2018-03-07T04:40:53.682Z,39.92
2018-03-07T04:43:29.051Z,31.40
2018-03-07T04:46:06.914Z,31.65
2018-03-07T04:48:48.821Z,31.42
2018-03-07T04:51:28.085Z,38.83
2018-03-07T04:54:04.952Z,34.90
2018-03-07T04:56:39.737Z,33.60
2018-03-07T04:59:16.100Z,34.35
2018-03-07T05:01:51.527Z,34.13
2018-03-07T05:04:26.616Z,33.33
2018-03-07T05:07:02.659Z,33.75
2018-03-07T05:09:39.526Z,31.00
2018-03-07T05:12:16.289Z,32.10
2018-03-07T05:14:52.146Z,36.13
2018-03-07T05:17:28.036Z,38.55
2018-03-07T05:20:04.823Z,33.85
2018-03-07T05:22:41.234Z,33.20
2018-03-07T05:25:17.484Z,37.53
2018-03-07T05:27:53.097Z,31.48
2018-03-07T05:30:28.733Z,33.30
2018-03-07T05:33:04.591Z,46.35
2018-03-07T05:35:40.247Z,36.35
2018-03-07T05:38:15.402Z,36.28
2018-03-07T05:40:51.423Z,35.58
2018-03-07T05:43:30.102Z,40.47
2018-03-07T05:46:05.275Z,42.53
2018-03-07T05:48:41.037Z,35.13
2018-03-07T05:51:18.063Z,34.70
2018-03-07T05:53:53.705Z,33.08
2018-03-07T05:56:31.145Z,36.85
2018-03-07T05:59:10.147Z,29.98
2018-03-07T06:01:46.874Z,41.08
2018-03-07T06:04:29.275Z,31.02
2018-03-07T06:07:04.443Z,36.97
2018-03-07T06:09:45.220Z,34.78
2018-03-07T06:12:22.377Z,31.17
2018-03-07T06:14:59.990Z,33.58
2018-03-07T06:17:36.427Z,34.47
2018-03-07T06:20:12.199Z,28.95
2018-03-07T06:22:49.696Z,37.63
2018-03-07T06:25:32.660Z,43.17
2018-03-07T06:28:08.959Z,38.85
2018-03-07T06:30:45.208Z,35.05
2018-03-07T06:33:22.587Z,34.78
2018-03-07T06:36:00.005Z,36.20
2018-03-07T06:38:36.929Z,48.58
2018-03-07T06:41:13.655Z,35.38
2018-03-07T06:43:51.104Z,35.38
2018-03-07T06:46:27.370Z,31.33
2018-03-07T06:49:03.944Z,33.35
2018-03-07T06:51:42.267Z,28.35
2018-03-07T06:54:17.965Z,29.60
2018-03-07T06:56:55.988Z,43.15
2018-03-07T06:59:31.808Z,32.03
2018-03-07T07:02:08.947Z,33.72
2018-03-07T07:04:45.368Z,30.20
2018-03-07T07:07:21.800Z,40.88
2018-03-07T07:09:58.849Z,30.05
2018-03-07T07:12:36.056Z,35.95
2018-03-07T07:15:11.650Z,32.28
2018-03-07T07:17:47.955Z,34.15
2018-03-07T07:20:17.811Z,30.25
2018-03-07T07:22:53.129Z,29.37
2018-03-07T07:25:29.981Z,32.28
2018-03-07T07:28:11.417Z,31.83
2018-03-07T07:30:48.326Z,28.60
2018-03-07T07:33:24.812Z,30.65
2018-03-07T07:36:00.137Z,28.02
2018-03-07T07:38:35.389Z,40.60
2018-03-07T07:41:11.444Z,33.42
2018-03-07T07:43:48.606Z,31.58
2018-03-07T07:46:26.527Z,41.25
2018-03-07T07:49:02.582Z,29.05
2018-03-07T07:51:39.424Z,29.83
2018-03-07T07:54:14.660Z,32.22
2018-03-07T07:56:56.504Z,34.65
2018-03-07T07:59:33.350Z,30.58
2018-03-07T08:02:13.320Z,26.92
2018-03-07T08:04:50.132Z,22.80
2018-03-07T08:07:26.194Z,23.27
2018-03-07T08:10:00.965Z,26.10
2018-03-07T08:12:39.283Z,21.42
2018-03-07T08:15:18.116Z,25.67
2018-03-07T08:17:55.921Z,19.73
2018-03-07T08:23:03.302Z,20.37
2018-03-07T08:25:39.388Z,17.73
2018-03-07T08:28:16.967Z,25.42
2018-03-07T08:30:52.787Z,20.65
2018-03-07T08:33:28.073Z,16.12
2018-03-07T08:36:05.649Z,16.98
2018-03-07T08:38:44.777Z,16.85
2018-03-07T08:41:21.129Z,22.85
2018-03-07T08:43:57.887Z,17.55
2018-03-07T08:46:34.930Z,17.30
2018-03-07T08:49:10.487Z,18.70
2018-03-07T08:51:49.469Z,23.55
2018-03-07T08:54:25.378Z,17.10
2018-03-07T08:57:01.575Z,14.48
2018-03-07T08:59:42.116Z,18.77
2018-03-07T09:02:19.901Z,21.58
2018-03-07T09:04:56.352Z,32.92
2018-03-07T09:07:39.065Z,18.00
2018-03-07T09:10:15.972Z,16.65
2018-03-07T09:12:51.494Z,17.37
2018-03-07T09:15:30.291Z,19.40
2018-03-07T09:18:08.440Z,19.77
2018-03-07T09:20:43.509Z,19.98
2018-03-07T09:23:20.943Z,21.35
2018-03-07T09:26:07.790Z,25.48
2018-03-07T09:28:44.888Z,24.63
2018-03-07T09:31:22.750Z,19.92
2018-03-07T09:33:59.145Z,20.62
2018-03-07T09:36:36.182Z,20.75
2018-03-07T09:39:12.476Z,20.95
2018-03-07T09:41:49.354Z,21.95
2018-03-07T09:44:28.849Z,26.25
2018-03-07T09:47:05.940Z,17.92
2018-03-07T09:49:47.887Z,27.50
2018-03-07T09:52:24.861Z,25.08
2018-03-07T09:55:02.149Z,21.48
2018-03-07T09:57:40.460Z,19.45
2018-03-07T10:00:17.963Z,20.50
2018-03-07T10:02:58.422Z,21.23
2018-03-07T10:05:36.746Z,22.05
2018-03-07T10:08:14.859Z,22.08
2018-03-07T10:10:52.966Z,26.92
2018-03-07T10:13:31.874Z,22.62
2018-03-07T10:16:09.078Z,25.85
2018-03-07T10:18:44.992Z,25.62
2018-03-07T10:21:24.857Z,25.60
2018-03-07T10:24:01.889Z,24.63
2018-03-07T10:26:38.881Z,21.77
2018-03-07T10:29:16.751Z,19.12
2018-03-07T10:31:54.415Z,27.75
2018-03-07T10:34:31.427Z,28.38
2018-03-07T10:37:08.076Z,25.60
2018-03-07T10:39:45.066Z,24.25
2018-03-07T10:42:23.196Z,21.80
2018-03-07T10:45:00.653Z,24.67
2018-03-07T10:47:37.164Z,25.25
2018-03-07T10:50:14.497Z,29.52
2018-03-07T10:52:56.994Z,39.60
2018-03-07T10:55:33.035Z,28.42
2018-03-07T10:58:10.543Z,25.48
2018-03-07T11:00:48.574Z,21.42
2018-03-07T11:03:27.812Z,20.88
2018-03-07T11:06:05.276Z,17.30
2018-03-07T11:08:41.286Z,22.52
2018-03-07T11:11:19.571Z,19.83
2018-03-07T11:13:57.660Z,21.58
2018-03-07T11:16:34.824Z,25.50
2018-03-07T11:19:10.212Z,21.58
2018-03-07T11:21:47.745Z,22.17
2018-03-07T11:24:24.676Z,21.42
2018-03-07T11:27:02.390Z,20.30
2018-03-07T11:29:39.076Z,23.27
2018-03-07T11:32:15.494Z,26.02
2018-03-07T11:34:52.872Z,35.50
2018-03-07T11:37:28.754Z,27.13
2018-03-07T11:40:07.118Z,27.70
2018-03-07T11:42:44.092Z,36.38
2018-03-07T11:45:20.111Z,35.30
2018-03-07T11:47:56.535Z,31.02
2018-03-07T11:50:33.845Z,29.27
2018-03-07T11:53:13.241Z,34.40
2018-03-07T11:55:51.161Z,35.10
2018-03-07T11:58:33.570Z,33.83
2018-03-07T12:01:10.568Z,31.05
2018-03-07T12:03:48.629Z,38.97
2018-03-07T12:06:25.317Z,35.80
2018-03-07T12:09:03.800Z,37.90
2018-03-07T12:11:43.204Z,29.48
2018-03-07T12:14:19.202Z,34.70
2018-03-07T12:16:58.178Z,35.35
2018-03-07T12:19:35.393Z,38.20
2018-03-07T12:22:13.450Z,34.65
2018-03-07T12:24:50.132Z,36.53
2018-03-07T12:27:26.675Z,30.35
2018-03-07T12:30:03.944Z,28.87
2018-03-07T12:32:41.736Z,26.08
2018-03-07T12:35:19.770Z,31.08
2018-03-07T12:37:56.766Z,29.60
2018-03-07T12:40:34.388Z,31.62
2018-03-07T12:43:12.060Z,30.50
2018-03-07T12:45:47.538Z,38.28
2018-03-07T12:48:23.525Z,31.10
2018-03-07T12:50:59.568Z,26.40
2018-03-07T12:53:36.750Z,27.55
2018-03-07T12:56:12.424Z,25.40
2018-03-07T12:58:49.884Z,21.20
2018-03-07T13:01:28.578Z,22.50
2018-03-07T13:04:05.803Z,25.55
2018-03-07T13:06:43.286Z,23.90
2018-03-07T13:09:22.266Z,25.48
2018-03-07T13:11:58.920Z,22.35
2018-03-07T13:14:34.283Z,24.50
2018-03-07T13:17:10.097Z,21.52
2018-03-07T13:19:46.325Z,21.87
2018-03-07T13:22:23.423Z,20.27
2018-03-07T13:25:00.171Z,20.35
2018-03-07T13:27:37.862Z,20.50
2018-03-07T13:30:18.346Z,21.15
2018-03-07T13:32:59.975Z,20.27
2018-03-07T13:35:37.077Z,18.77
2018-03-07T13:38:12.435Z,23.23
2018-03-07T13:40:49.483Z,18.62
2018-03-07T13:43:28.092Z,20.70
2018-03-07T13:46:08.650Z,32.28
2018-03-07T13:48:47.246Z,25.77
2018-03-07T13:51:24.833Z,19.05
2018-03-07T13:54:00.651Z,22.25
2018-03-07T13:56:36.571Z,18.17
2018-03-07T13:59:14.404Z,17.45
2018-03-07T14:01:52.527Z,18.70
2018-03-07T14:04:28.340Z,27.08
2018-03-07T14:07:07.421Z,26.15
2018-03-07T14:09:50.000Z,17.55
2018-03-07T14:12:27.761Z,19.33
2018-03-07T14:15:04.012Z,24.20
2018-03-07T14:17:39.927Z,22.33
2018-03-07T14:20:18.993Z,18.23
2018-03-07T14:22:56.484Z,19.02
2018-03-07T14:25:32.786Z,19.10
2018-03-07T14:28:10.318Z,16.15
2018-03-07T14:30:47.294Z,19.85
2018-03-07T14:33:24.317Z,19.48
2018-03-07T14:36:00.696Z,19.85
2018-03-07T14:38:36.093Z,15.40
2018-03-07T14:41:14.000Z,15.80
2018-03-07T14:43:51.314Z,13.95
2018-03-07T14:46:21.402Z,17.42
2018-03-07T14:48:58.047Z,13.32
2018-03-07T14:51:34.859Z,14.77
2018-03-07T14:54:14.136Z,11.85
2018-03-07T14:56:51.861Z,13.38
2018-03-07T14:59:29.351Z,13.10
2018-03-07T15:02:07.047Z,15.05
2018-03-07T15:04:42.519Z,14.15
2018-03-07T15:07:21.237Z,12.40
2018-03-07T15:09:59.304Z,20.25
2018-03-07T15:12:36.678Z,10.35
2018-03-07T15:15:15.260Z,12.35
2018-03-07T15:17:51.046Z,11.82
2018-03-07T15:20:27.657Z,9.65
2018-03-07T15:23:03.492Z,12.05
2018-03-07T15:25:39.017Z,10.70
2018-03-07T15:28:17.281Z,12.23
2018-03-07T15:30:54.775Z,9.18
2018-03-07T15:33:32.000Z,10.25
2018-03-07T15:36:08.651Z,10.02
2018-03-07T15:38:46.164Z,15.95
2018-03-07T15:41:23.400Z,11.40
2018-03-07T15:44:00.900Z,11.10
2018-03-07T15:46:37.354Z,11.15
2018-03-07T15:49:13.097Z,14.07
2018-03-07T15:51:49.975Z,11.48
2018-03-07T15:54:26.046Z,11.63
2018-03-07T15:57:02.419Z,13.70
2018-03-07T15:59:38.223Z,13.75
2018-03-07T16:02:14.713Z,14.93
2018-03-07T16:04:51.138Z,7.80
2018-03-07T16:07:31.046Z,8.23
2018-03-07T16:10:06.456Z,9.57
2018-03-07T16:12:44.555Z,8.70
2018-03-07T16:15:19.601Z,7.72
2018-03-07T16:17:55.099Z,7.32
2018-03-07T16:20:32.290Z,3.92
2018-03-07T16:23:08.608Z,7.95
2018-03-07T16:25:45.703Z,6.57
2018-03-07T16:28:21.329Z,6.55
2018-03-07T16:30:56.929Z,7.00
2018-03-07T16:33:33.225Z,6.00
2018-03-07T16:36:08.884Z,5.70
2018-03-07T16:38:46.179Z,5.93
2018-03-07T16:41:22.782Z,6.12
2018-03-07T16:43:58.807Z,5.70
2018-03-07T16:46:40.685Z,6.25
2018-03-07T16:49:17.560Z,5.50
2018-03-07T16:51:55.387Z,5.40
2018-03-07T16:54:32.033Z,5.45
2018-03-07T16:57:08.567Z,4.45
2018-03-07T16:59:47.069Z,4.82
2018-03-07T17:02:25.191Z,4.60
2018-03-07T17:05:01.795Z,5.32
2018-03-07T17:07:45.709Z,5.40
2018-03-07T17:10:21.928Z,5.15
2018-03-07T17:13:02.361Z,6.30
2018-03-07T17:15:38.276Z,4.70
2018-03-07T17:18:15.325Z,6.68
2018-03-07T17:20:52.915Z,5.60
2018-03-07T17:23:31.202Z,5.85
2018-03-07T17:26:09.390Z,7.05
2018-03-07T17:28:45.996Z,5.78
2018-03-07T17:31:23.632Z,5.80
2018-03-07T17:34:00.399Z,6.18
2018-03-07T17:36:37.838Z,5.72
2018-03-07T17:39:14.820Z,5.75
2018-03-07T17:41:54.343Z,5.95
2018-03-07T17:44:33.855Z,6.18
2018-03-07T17:47:09.007Z,3.50
2018-03-07T17:49:46.731Z,7.10
2018-03-07T17:52:24.769Z,6.20
2018-03-07T17:55:02.799Z,3.00
2018-03-07T17:57:39.914Z,5.15
2018-03-07T18:00:16.148Z,5.85
2018-03-07T18:02:53.623Z,5.07
2018-03-07T18:05:30.843Z,6.80
2018-03-07T18:08:12.017Z,5.47
2018-03-07T18:10:48.524Z,3.83
2018-03-07T18:13:25.090Z,4.60
2018-03-07T18:16:00.454Z,5.55
2018-03-07T18:18:39.154Z,5.45
2018-03-07T18:21:12.329Z,6.53
2018-03-07T18:23:49.480Z,6.78
2018-03-07T18:26:25.856Z,6.40
2018-03-07T18:29:03.535Z,7.18
2018-03-07T18:31:39.127Z,6.30
2018-03-07T18:34:17.045Z,6.62
2018-03-07T18:36:54.235Z,7.72
2018-03-07T18:39:32.391Z,8.30
2018-03-07T18:42:09.519Z,8.52
2018-03-07T18:44:44.459Z,8.07
2018-03-07T18:47:20.673Z,8.70
2018-03-07T18:49:58.011Z,8.23
2018-03-07T18:52:33.381Z,10.38
2018-03-07T18:55:08.918Z,8.00
2018-03-07T18:57:45.801Z,8.73
2018-03-07T19:00:22.574Z,9.63
2018-03-07T19:03:00.604Z,10.30
2018-03-07T19:05:37.258Z,9.80
2018-03-07T19:08:12.895Z,9.38
2018-03-07T19:10:48.811Z,10.15
2018-03-07T19:13:26.625Z,13.75
2018-03-07T19:16:02.165Z,11.10
2018-03-07T19:18:43.129Z,11.90
2018-03-07T19:21:21.010Z,13.15
2018-03-07T19:24:00.188Z,13.85
2018-03-07T19:26:36.312Z,15.18
2018-03-07T19:29:13.469Z,18.58
2018-03-07T19:31:50.103Z,19.45
2018-03-07T19:34:25.841Z,19.37
2018-03-07T19:37:01.628Z,16.08
2018-03-07T19:39:36.986Z,21.85
2018-03-07T19:42:13.073Z,19.87
2018-03-07T19:44:48.784Z,22.77
2018-03-07T19:47:26.073Z,23.00
2018-03-07T19:50:02.806Z,24.60
2018-03-07T19:52:41.687Z,25.80
2018-03-07T19:55:18.178Z,25.42
2018-03-07T19:57:54.460Z,23.15
2018-03-07T20:00:34.513Z,27.75
2018-03-07T20:03:11.918Z,30.23
2018-03-07T20:05:53.950Z,33.00
2018-03-07T20:08:29.234Z,31.62
2018-03-07T20:10:59.982Z,39.03
2018-03-07T20:13:36.517Z,35.83
2018-03-07T20:16:12.161Z,37.22
2018-03-07T20:18:48.874Z,39.17
2018-03-07T20:21:25.786Z,38.70
2018-03-07T20:24:02.316Z,46.47
2018-03-07T20:26:37.756Z,40.72
2018-03-07T20:29:14.602Z,43.00
2018-03-07T20:31:50.688Z,41.80
2018-03-07T20:34:29.690Z,37.90
2018-03-07T20:37:00.402Z,39.83
2018-03-07T20:39:37.699Z,31.73
2018-03-07T20:42:14.242Z,30.40
2018-03-07T20:44:49.077Z,24.80
2018-03-07T20:47:27.855Z,23.38
2018-03-07T20:50:06.063Z,20.55
2018-03-07T20:52:42.681Z,17.83
2018-03-07T20:55:19.748Z,16.87
2018-03-07T20:58:01.909Z,18.37
2018-03-07T21:00:39.502Z,22.35
2018-03-07T21:03:16.064Z,21.30
2018-03-07T21:05:46.140Z,21.65
2018-03-07T21:08:23.455Z,25.62
2018-03-07T21:11:01.209Z,23.70
2018-03-07T21:13:37.553Z,28.92
2018-03-07T21:16:13.961Z,23.08
2018-03-07T21:18:52.064Z,24.08
2018-03-07T21:21:28.964Z,26.05
2018-03-07T21:24:05.357Z,23.25
2018-03-07T21:26:41.117Z,22.27
2018-03-07T21:29:24.006Z,24.25
2018-03-07T21:32:00.458Z,27.50
2018-03-07T21:34:37.299Z,38.03
2018-03-07T21:37:15.486Z,30.95
2018-03-07T21:39:53.444Z,36.15
2018-03-07T21:42:30.010Z,37.75
2018-03-07T21:45:06.036Z,40.00
2018-03-07T21:47:42.487Z,48.78
2018-03-07T21:50:20.147Z,58.20
2018-03-07T21:52:55.506Z,54.03
2018-03-07T21:55:32.717Z,53.80
2018-03-07T21:58:08.758Z,53.50
2018-03-07T22:00:46.875Z,55.20
2018-03-07T22:03:23.159Z,51.67
2018-03-07T22:06:00.388Z,59.83
2018-03-07T22:08:40.363Z,52.97
2018-03-07T22:11:16.891Z,54.83
2018-03-07T22:13:52.454Z,53.47
2018-03-07T22:16:27.887Z,54.08
2018-03-07T22:19:07.398Z,55.83
2018-03-07T22:21:45.735Z,58.22
2018-03-07T22:24:16.224Z,55.60
2018-03-07T22:26:54.095Z,61.55
2018-03-07T22:29:35.722Z,61.88
2018-03-07T22:32:11.473Z,58.58
2018-03-07T22:34:48.514Z,63.28
2018-03-07T22:37:26.618Z,62.47
2018-03-07T22:40:02.796Z,67.12
2018-03-07T22:42:40.052Z,67.60
2018-03-07T22:45:18.326Z,67.87
2018-03-07T22:47:55.138Z,72.75
2018-03-07T22:50:32.892Z,67.22
2018-03-07T22:53:03.422Z,69.35
2018-03-07T22:55:40.751Z,68.85
2018-03-07T22:58:17.716Z,62.65
2018-03-07T23:00:54.246Z,66.20
2018-03-07T23:03:32.146Z,77.78
2018-03-07T23:06:12.897Z,82.32
2018-03-07T23:08:50.879Z,71.43
2018-03-07T23:11:26.910Z,82.95
2018-03-07T23:14:02.668Z,72.80
2018-03-07T23:16:34.076Z,78.85
2018-03-07T23:19:11.468Z,75.75
2018-03-07T23:21:49.076Z,82.35
2018-03-07T23:24:25.703Z,76.90
2018-03-07T23:27:01.977Z,80.45
2018-03-07T23:29:37.310Z,75.85
2018-03-07T23:32:07.011Z,78.78
2018-03-07T23:34:42.425Z,79.85
2018-03-07T23:37:17.886Z,82.40
2018-03-07T23:39:53.945Z,78.18
2018-03-07T23:42:23.872Z,74.50
2018-03-07T23:44:59.530Z,66.20
2018-03-07T23:47:35.285Z,61.17
2018-03-07T23:50:12.293Z,67.45
2018-03-07T23:52:49.791Z,66.55
2018-03-07T23:55:27.760Z,57.75
2018-03-07T23:58:09.021Z,57.55
